createdAt,value
2017-09-26T00:01:05.892Z,9.57
2017-09-26T00:03:33.430Z,8.90
2017-09-26T00:06:00.957Z,9.53
2017-09-26T00:08:28.467Z,9.60
2017-09-26T00:10:55.971Z,9.90
2017-09-26T00:13:23.547Z,9.33
2017-09-26T00:15:51.048Z,9.10
2017-09-26T00:18:18.551Z,8.57
2017-09-26T00:20:46.062Z,8.23
2017-09-26T00:23:13.569Z,9.90
2017-09-26T00:25:41.152Z,10.10
2017-09-26T00:28:08.663Z,10.10
2017-09-26T00:30:36.269Z,11.33
2017-09-26T00:33:03.771Z,11.60
2017-09-26T00:35:31.283Z,10.00
2017-09-26T00:38:00.279Z,9.77
2017-09-26T00:40:27.784Z,8.23
2017-09-26T00:42:55.300Z,10.03
2017-09-26T00:45:22.821Z,10.20
2017-09-26T00:47:50.356Z,11.23
2017-09-26T00:50:17.855Z,10.97
2017-09-26T00:52:45.364Z,10.50
2017-09-26T00:55:12.880Z,10.23
2017-09-26T00:57:40.397Z,10.20
2017-09-26T01:00:07.910Z,12.23
2017-09-26T01:02:35.422Z,12.60
2017-09-26T01:05:03.315Z,10.10
2017-09-26T01:07:30.831Z,10.67
2017-09-26T01:09:58.374Z,10.20
2017-09-26T01:12:25.911Z,8.97
2017-09-26T01:14:53.419Z,10.77
2017-09-26T01:17:20.937Z,8.83
2017-09-26T01:19:48.434Z,8.63
2017-09-26T01:22:16.029Z,8.57
2017-09-26T01:24:43.531Z,8.80
2017-09-26T01:27:11.030Z,9.80
2017-09-26T01:29:38.564Z,10.20
2017-09-26T01:32:06.090Z,9.30
2017-09-26T01:34:33.607Z,8.77
2017-09-26T01:37:01.113Z,9.43
2017-09-26T01:39:28.622Z,10.90
2017-09-26T01:41:56.127Z,9.70
2017-09-26T01:44:23.636Z,11.10
2017-09-26T01:46:51.133Z,9.93
2017-09-26T01:49:18.652Z,9.63
2017-09-26T01:51:46.156Z,10.80
2017-09-26T01:54:13.662Z,10.13
2017-09-26T01:56:42.988Z,10.03
2017-09-26T01:59:12.019Z,10.17
2017-09-26T02:01:39.525Z,10.77
2017-09-26T02:04:07.087Z,10.60
2017-09-26T02:06:34.632Z,10.77
2017-09-26T02:09:02.150Z,10.87
2017-09-26T02:11:29.662Z,10.83
2017-09-26T02:13:57.204Z,10.70
2017-09-26T02:16:24.733Z,11.60
2017-09-26T02:18:52.272Z,11.17
2017-09-26T02:21:19.821Z,10.60
2017-09-26T02:23:47.333Z,11.00
2017-09-26T02:26:14.859Z,11.73
2017-09-26T02:28:42.396Z,12.40
2017-09-26T02:31:09.930Z,11.60
2017-09-26T02:33:37.475Z,11.00
2017-09-26T02:36:05.036Z,10.97
2017-09-26T02:38:32.598Z,12.60
2017-09-26T02:41:00.100Z,12.30
2017-09-26T02:43:27.620Z,9.97
2017-09-26T02:45:55.127Z,12.80
2017-09-26T02:48:22.646Z,11.30
2017-09-26T02:50:50.154Z,11.20
2017-09-26T02:53:17.664Z,12.27
2017-09-26T02:55:45.197Z,12.30
2017-09-26T02:58:12.709Z,11.80
2017-09-26T03:00:40.231Z,10.57
2017-09-26T03:03:07.766Z,11.10
2017-09-26T03:05:35.287Z,10.13
2017-09-26T03:08:02.819Z,10.87
2017-09-26T03:10:30.356Z,11.37
2017-09-26T03:12:57.872Z,12.90
2017-09-26T03:15:25.422Z,12.27
2017-09-26T03:17:52.927Z,12.70
2017-09-26T03:20:20.432Z,10.73
2017-09-26T03:22:47.946Z,10.77
2017-09-26T03:25:15.468Z,9.70
2017-09-26T03:27:42.989Z,9.93
2017-09-26T03:30:10.512Z,9.50
2017-09-26T03:32:38.532Z,9.60
2017-09-26T03:35:06.052Z,10.70
2017-09-26T03:37:33.574Z,11.77
2017-09-26T03:40:01.079Z,12.50
2017-09-26T03:42:28.582Z,12.27
2017-09-26T03:44:56.092Z,12.40
2017-09-26T03:47:23.617Z,10.90
2017-09-26T03:49:51.128Z,11.37
2017-09-26T03:52:18.641Z,11.10
2017-09-26T03:54:46.160Z,11.00
2017-09-26T03:57:13.678Z,10.10
2017-09-26T03:59:41.183Z,13.90
2017-09-26T04:02:08.712Z,12.30
2017-09-26T04:04:36.224Z,12.87
2017-09-26T04:07:03.725Z,12.40
2017-09-26T04:09:31.252Z,12.13
2017-09-26T04:11:58.762Z,11.70
2017-09-26T04:14:26.266Z,10.83
2017-09-26T04:16:53.786Z,11.03
2017-09-26T04:19:21.310Z,10.77
2017-09-26T04:21:48.831Z,11.23
2017-09-26T04:24:16.341Z,11.87
2017-09-26T04:26:43.860Z,12.37
2017-09-26T04:29:11.377Z,11.70
2017-09-26T04:31:38.886Z,12.67
2017-09-26T04:34:06.404Z,12.67
2017-09-26T04:36:33.915Z,11.70
2017-09-26T04:39:01.428Z,11.53
2017-09-26T04:41:28.947Z,13.20
2017-09-26T04:43:56.479Z,12.57
2017-09-26T04:46:23.982Z,13.63
2017-09-26T04:48:51.488Z,13.43
2017-09-26T04:51:19.011Z,12.70
2017-09-26T04:53:46.530Z,11.87
2017-09-26T04:56:14.040Z,12.40
2017-09-26T04:58:41.557Z,11.40
2017-09-26T05:01:09.060Z,12.50
2017-09-26T05:03:36.582Z,12.63
2017-09-26T05:06:04.101Z,12.43
2017-09-26T05:08:31.611Z,12.63
2017-09-26T05:10:59.151Z,13.10
2017-09-26T05:13:26.674Z,11.90
2017-09-26T05:15:54.202Z,11.93
2017-09-26T05:18:21.715Z,12.43
2017-09-26T05:20:49.242Z,11.73
2017-09-26T05:23:16.778Z,11.50
2017-09-26T05:25:44.289Z,14.77
2017-09-26T05:28:11.797Z,15.57
2017-09-26T05:30:39.306Z,18.00
2017-09-26T05:33:06.870Z,15.70
2017-09-26T05:35:34.376Z,12.30
2017-09-26T05:38:01.905Z,14.13
2017-09-26T05:40:29.423Z,15.57
2017-09-26T05:42:56.969Z,15.70
2017-09-26T05:45:24.544Z,17.60
2017-09-26T05:47:52.052Z,17.60
2017-09-26T05:50:19.559Z,17.90
2017-09-26T05:52:47.079Z,14.83
2017-09-26T05:55:14.619Z,16.27
2017-09-26T05:57:42.135Z,15.77
2017-09-26T06:00:09.650Z,15.13
2017-09-26T06:02:37.185Z,13.13
2017-09-26T06:05:04.699Z,14.93
2017-09-26T06:07:32.209Z,14.00
2017-09-26T06:09:59.734Z,13.07
2017-09-26T06:12:27.239Z,13.80
2017-09-26T06:14:54.756Z,13.27
2017-09-26T06:17:22.286Z,11.07
2017-09-26T06:19:49.801Z,11.70
2017-09-26T06:22:17.318Z,12.20
2017-09-26T06:24:44.843Z,12.80
2017-09-26T06:27:12.371Z,13.13
2017-09-26T06:29:39.899Z,13.43
2017-09-26T06:32:07.407Z,13.10
2017-09-26T06:34:34.940Z,13.03
2017-09-26T06:37:02.458Z,12.60
2017-09-26T06:39:29.963Z,12.80
2017-09-26T06:41:57.470Z,13.73
2017-09-26T06:44:24.979Z,12.67
2017-09-26T06:46:52.510Z,12.07
2017-09-26T06:49:20.056Z,11.27
2017-09-26T06:51:47.601Z,12.67
2017-09-26T06:54:15.106Z,12.23
2017-09-26T06:56:42.662Z,10.60
2017-09-26T06:59:10.210Z,12.00
2017-09-26T07:01:37.720Z,11.93
2017-09-26T07:04:05.272Z,10.73
2017-09-26T07:06:41.019Z,12.30
2017-09-26T07:09:09.491Z,11.33
2017-09-26T07:12:07.966Z,11.20
2017-09-26T07:14:35.486Z,10.80
2017-09-26T07:17:04.931Z,10.97
2017-09-26T07:19:44.225Z,11.87
2017-09-26T07:22:19.423Z,11.70
2017-09-26T07:24:46.955Z,12.37
2017-09-26T07:27:14.488Z,11.30
2017-09-26T07:29:42.032Z,13.10
2017-09-26T07:32:09.548Z,17.10
2017-09-26T07:34:37.071Z,12.47
2017-09-26T07:37:04.607Z,12.67
2017-09-26T07:39:32.124Z,12.90
2017-09-26T07:41:59.671Z,13.27
2017-09-26T07:44:27.196Z,14.53
2017-09-26T07:46:54.722Z,14.50
2017-09-26T07:49:22.243Z,15.97
2017-09-26T07:51:49.766Z,14.87
2017-09-26T07:54:17.332Z,14.30
2017-09-26T07:56:44.879Z,16.80
2017-09-26T07:59:12.404Z,15.60
2017-09-26T08:01:39.932Z,14.43
2017-09-26T08:04:08.282Z,13.47
2017-09-26T08:06:36.668Z,14.97
2017-09-26T08:09:05.251Z,15.80
2017-09-26T08:11:32.799Z,13.03
2017-09-26T08:14:00.314Z,14.50
2017-09-26T08:16:27.836Z,13.27
2017-09-26T08:18:55.355Z,14.20
2017-09-26T08:21:22.965Z,12.50
2017-09-26T08:23:50.492Z,12.70
2017-09-26T08:26:18.015Z,13.37
2017-09-26T08:28:45.538Z,14.30
2017-09-26T08:31:13.061Z,13.07
2017-09-26T08:33:40.609Z,11.97
2017-09-26T08:36:08.135Z,13.57
2017-09-26T08:38:35.655Z,11.57
2017-09-26T08:41:03.217Z,11.67
2017-09-26T08:43:30.755Z,11.30
2017-09-26T08:45:58.287Z,10.80
2017-09-26T08:48:25.838Z,10.03
2017-09-26T08:50:53.350Z,9.83
2017-09-26T08:53:20.868Z,11.67
2017-09-26T08:55:48.422Z,11.80
2017-09-26T08:58:15.958Z,10.60
2017-09-26T09:00:43.483Z,10.60
2017-09-26T09:03:10.995Z,11.97
2017-09-26T09:05:38.514Z,10.87
2017-09-26T09:08:06.152Z,10.73
2017-09-26T09:10:49.089Z,9.50
2017-09-26T09:13:16.633Z,10.50
2017-09-26T09:15:44.147Z,9.93
2017-09-26T09:18:11.684Z,10.00
2017-09-26T09:20:39.208Z,8.87
2017-09-26T09:23:06.816Z,10.07
2017-09-26T09:25:34.284Z,10.70
2017-09-26T09:28:01.791Z,8.47
2017-09-26T09:32:27.399Z,9.33
2017-09-26T09:34:54.936Z,8.03
2017-09-26T09:37:22.440Z,9.00
2017-09-26T09:39:49.955Z,9.60
2017-09-26T09:42:17.474Z,8.63
2017-09-26T09:44:44.993Z,9.73
2017-09-26T09:47:12.520Z,10.40
2017-09-26T09:49:40.052Z,10.47
2017-09-26T09:52:07.577Z,9.00
2017-09-26T09:54:35.140Z,9.10
2017-09-26T09:57:02.742Z,7.10
2017-09-26T09:59:30.287Z,7.93
2017-09-26T10:01:57.793Z,7.60
2017-09-26T10:04:25.343Z,7.77
2017-09-26T10:06:53.031Z,7.93
2017-09-26T10:09:20.535Z,7.70
2017-09-26T10:11:48.053Z,8.20
2017-09-26T10:14:15.631Z,8.60
2017-09-26T10:16:43.294Z,8.10
2017-09-26T10:19:10.851Z,7.80
2017-09-26T10:21:38.352Z,9.07
2017-09-26T10:24:05.876Z,9.50
2017-09-26T10:26:33.390Z,11.13
2017-09-26T10:29:00.905Z,11.87
2017-09-26T10:31:28.438Z,11.60
2017-09-26T10:33:56.160Z,12.17
2017-09-26T10:36:23.691Z,12.10
2017-09-26T10:38:51.214Z,10.17
2017-09-26T10:41:18.738Z,10.83
2017-09-26T10:43:46.261Z,11.80
2017-09-26T10:46:13.814Z,10.77
2017-09-26T10:48:41.351Z,10.67
2017-09-26T10:51:08.885Z,11.00
2017-09-26T10:53:36.408Z,10.53
2017-09-26T10:56:03.920Z,12.13
2017-09-26T10:58:31.433Z,12.00
2017-09-26T11:00:58.968Z,11.47
2017-09-26T11:03:26.602Z,12.40
2017-09-26T11:05:54.115Z,12.20
2017-09-26T11:08:21.650Z,11.70
2017-09-26T11:10:49.173Z,12.00
2017-09-26T11:13:16.700Z,13.10
2017-09-26T11:15:44.227Z,12.43
2017-09-26T11:18:11.747Z,13.17
2017-09-26T11:20:39.308Z,14.03
2017-09-26T11:23:06.842Z,13.07
2017-09-26T11:25:34.377Z,12.63
2017-09-26T11:28:01.908Z,12.63
2017-09-26T11:30:29.427Z,14.23
2017-09-26T11:32:56.943Z,14.97
2017-09-26T11:35:24.465Z,13.10
2017-09-26T11:37:51.979Z,12.73
2017-09-26T11:40:19.510Z,13.17
2017-09-26T11:42:47.058Z,13.27
2017-09-26T11:45:14.575Z,14.30
2017-09-26T11:47:42.106Z,12.93
2017-09-26T11:50:09.635Z,13.93
2017-09-26T11:52:37.174Z,15.83
2017-09-26T11:55:04.743Z,12.13
2017-09-26T11:57:32.285Z,12.60
2017-09-26T11:59:59.856Z,14.10
2017-09-26T12:02:27.395Z,14.63
2017-09-26T12:04:54.962Z,14.17
2017-09-26T12:07:22.495Z,16.27
2017-09-26T12:09:50.015Z,15.20
2017-09-26T12:12:17.549Z,15.80
2017-09-26T12:14:45.064Z,14.40
2017-09-26T12:17:12.592Z,14.50
2017-09-26T12:19:40.133Z,14.90
2017-09-26T12:22:07.678Z,16.10
2017-09-26T12:24:35.193Z,17.00
2017-09-26T12:27:02.789Z,16.37
2017-09-26T12:29:30.328Z,14.90
2017-09-26T12:31:57.856Z,12.90
2017-09-26T12:34:25.392Z,15.00
2017-09-26T12:36:52.924Z,16.03
2017-09-26T12:39:20.465Z,14.93
2017-09-26T12:41:47.989Z,18.10
2017-09-26T12:44:15.516Z,15.70
2017-09-26T12:46:43.049Z,16.17
2017-09-26T12:49:10.575Z,15.83
2017-09-26T12:51:38.096Z,16.63
2017-09-26T12:54:05.652Z,17.10
2017-09-26T12:56:33.234Z,16.70
2017-09-26T12:59:00.784Z,18.40
2017-09-26T13:01:28.350Z,19.43
2017-09-26T13:03:55.858Z,19.97
2017-09-26T13:06:23.374Z,17.67
2017-09-26T13:08:50.885Z,18.20
2017-09-26T13:11:18.417Z,18.30
2017-09-26T13:13:45.950Z,19.33
2017-09-26T13:16:13.538Z,16.50
2017-09-26T13:18:41.080Z,15.20
2017-09-26T13:21:08.658Z,14.30
2017-09-26T13:23:36.176Z,15.70
2017-09-26T13:26:03.717Z,15.97
2017-09-26T13:28:31.248Z,15.63
2017-09-26T13:30:58.797Z,17.37
2017-09-26T13:33:26.338Z,14.87
2017-09-26T13:35:53.881Z,15.90
2017-09-26T13:38:21.409Z,17.20
2017-09-26T13:40:48.933Z,16.47
2017-09-26T13:43:16.467Z,17.67
2017-09-26T13:45:44.447Z,18.00
2017-09-26T13:48:11.971Z,19.47
2017-09-26T13:50:39.505Z,17.10
2017-09-26T13:53:07.100Z,17.63
2017-09-26T13:55:34.614Z,17.17
2017-09-26T13:58:02.214Z,14.30
2017-09-26T14:00:29.752Z,15.67
2017-09-26T14:02:57.284Z,14.03
2017-09-26T14:05:24.812Z,13.30
2017-09-26T14:07:52.323Z,13.43
2017-09-26T14:10:19.850Z,12.10
2017-09-26T14:12:47.393Z,13.40
2017-09-26T14:15:14.919Z,13.40
2017-09-26T14:17:42.470Z,11.50
2017-09-26T14:20:09.992Z,12.10
2017-09-26T14:22:37.515Z,10.53
2017-09-26T14:25:05.071Z,9.10
2017-09-26T14:27:32.579Z,8.50
2017-09-26T14:30:00.100Z,7.90
2017-09-26T14:32:27.712Z,5.23
2017-09-26T14:34:55.227Z,4.70
2017-09-26T14:37:22.752Z,4.23
2017-09-26T14:39:50.254Z,3.87
2017-09-26T14:42:17.765Z,3.80
2017-09-26T14:44:45.275Z,4.90
2017-09-26T14:47:12.802Z,8.13
2017-09-26T14:49:41.305Z,7.40
2017-09-26T14:52:08.831Z,9.13
2017-09-26T14:54:36.385Z,13.77
2017-09-26T14:57:03.915Z,17.10
2017-09-26T14:59:31.447Z,17.63
2017-09-26T15:01:58.985Z,18.70
2017-09-26T15:04:26.515Z,13.40
2017-09-26T15:06:54.056Z,12.60
2017-09-26T15:09:21.574Z,11.60
2017-09-26T15:11:49.105Z,12.40
2017-09-26T15:14:16.619Z,13.10
2017-09-26T15:16:44.142Z,11.57
2017-09-26T15:19:11.673Z,12.83
2017-09-26T15:21:39.202Z,14.37
2017-09-26T15:24:06.718Z,16.20
2017-09-26T15:26:34.323Z,13.80
2017-09-26T15:29:01.831Z,11.47
2017-09-26T15:31:29.360Z,13.47
2017-09-26T15:33:56.947Z,12.03
2017-09-26T15:36:24.464Z,12.87
2017-09-26T15:38:51.992Z,12.90
2017-09-26T15:41:19.517Z,13.00
2017-09-26T15:43:47.061Z,12.93
2017-09-26T15:46:14.575Z,12.20
2017-09-26T15:48:42.111Z,12.07
2017-09-26T15:51:09.649Z,12.47
2017-09-26T15:53:37.166Z,13.80
2017-09-26T15:56:04.689Z,14.63
2017-09-26T15:58:32.213Z,19.53
2017-09-26T16:00:59.734Z,24.80
2017-09-26T16:03:27.267Z,20.53
2017-09-26T16:05:54.789Z,20.10
2017-09-26T16:08:22.331Z,19.90
2017-09-26T16:10:49.859Z,19.23
2017-09-26T16:13:17.374Z,18.50
2017-09-26T16:15:44.904Z,20.00
2017-09-26T16:18:12.544Z,21.13
2017-09-26T16:20:40.072Z,21.90
2017-09-26T16:23:07.616Z,25.70
2017-09-26T16:25:35.173Z,24.90
2017-09-26T16:28:02.688Z,25.87
2017-09-26T16:30:30.214Z,23.70
2017-09-26T16:32:57.849Z,22.60
2017-09-26T16:35:25.395Z,21.70
2017-09-26T16:37:52.937Z,21.63
2017-09-26T16:40:20.536Z,21.17
2017-09-26T16:42:48.065Z,21.50
2017-09-26T16:45:15.603Z,22.30
2017-09-26T16:47:43.199Z,24.30
2017-09-26T16:50:10.712Z,21.07
2017-09-26T16:52:38.235Z,17.43
2017-09-26T16:55:05.847Z,18.97
2017-09-26T16:57:33.434Z,21.83
2017-09-26T17:00:00.974Z,20.80
2017-09-26T17:02:28.510Z,18.37
2017-09-26T17:04:56.081Z,20.33
2017-09-26T17:07:23.591Z,19.23
2017-09-26T17:09:51.115Z,22.77
2017-09-26T17:12:18.666Z,22.57
2017-09-26T17:14:49.150Z,19.20
2017-09-26T17:17:37.322Z,21.50
2017-09-26T17:20:06.618Z,18.87
2017-09-26T17:22:34.158Z,19.30
2017-09-26T17:25:01.696Z,20.00
2017-09-26T17:27:29.240Z,18.13
2017-09-26T17:29:56.813Z,17.27
2017-09-26T17:32:24.335Z,16.17
2017-09-26T17:34:52.475Z,14.87
2017-09-26T17:37:20.023Z,15.37
2017-09-26T17:39:47.547Z,16.20
2017-09-26T17:42:15.198Z,16.30
2017-09-26T17:44:42.742Z,14.70
2017-09-26T17:47:10.264Z,15.97
2017-09-26T17:49:37.806Z,15.63
2017-09-26T17:52:05.352Z,15.57
2017-09-26T17:54:33.130Z,16.20
2017-09-26T17:57:00.715Z,19.57
2017-09-26T17:59:28.251Z,17.77
2017-09-26T18:01:55.767Z,17.10
2017-09-26T18:04:23.299Z,15.17
2017-09-26T18:06:50.939Z,14.47
2017-09-26T18:09:18.548Z,15.07
2017-09-26T18:11:46.095Z,16.40
2017-09-26T18:14:20.199Z,14.97
2017-09-26T18:16:48.292Z,16.10
2017-09-26T18:19:16.777Z,16.87
2017-09-26T18:21:44.329Z,18.20
2017-09-26T18:24:11.840Z,19.57
2017-09-26T18:26:46.289Z,19.70
2017-09-26T18:29:20.820Z,18.30
2017-09-26T18:31:50.253Z,20.77
2017-09-26T18:34:17.767Z,16.67
2017-09-26T18:36:45.296Z,17.90
2017-09-26T18:39:12.848Z,16.13
2017-09-26T18:41:40.467Z,19.77
2017-09-26T18:44:08.008Z,17.40
2017-09-26T18:46:35.541Z,17.50
2017-09-26T18:49:03.087Z,15.93
2017-09-26T18:51:30.624Z,16.57
2017-09-26T18:53:58.131Z,20.20
2017-09-26T18:56:25.654Z,20.67
2017-09-26T18:58:53.187Z,24.10
2017-09-26T19:01:20.707Z,21.53
2017-09-26T19:03:48.219Z,24.07
2017-09-26T19:06:15.748Z,21.57
2017-09-26T19:08:43.290Z,20.93
2017-09-26T19:11:10.828Z,22.70
2017-09-26T19:13:38.378Z,21.93
2017-09-26T19:16:05.948Z,24.47
2017-09-26T19:18:33.464Z,23.10
2017-09-26T19:21:01.086Z,24.80
2017-09-26T19:23:28.707Z,25.57
2017-09-26T19:25:56.237Z,25.67
2017-09-26T19:28:23.763Z,25.47
2017-09-26T19:30:51.341Z,23.47
2017-09-26T19:33:18.899Z,22.80
2017-09-26T19:35:46.428Z,28.10
2017-09-26T19:38:13.958Z,26.90
2017-09-26T19:40:41.571Z,28.50
2017-09-26T19:43:09.208Z,27.23
2017-09-26T19:45:36.841Z,28.03
2017-09-26T19:48:04.391Z,24.83
2017-09-26T19:50:31.956Z,22.63
2017-09-26T19:52:59.490Z,22.40
2017-09-26T19:55:27.044Z,22.90
2017-09-26T19:57:54.597Z,22.93
2017-09-26T20:00:22.131Z,22.50
2017-09-26T20:02:49.709Z,22.13
2017-09-26T20:05:17.255Z,21.57
2017-09-26T20:07:44.783Z,20.80
2017-09-26T20:10:12.294Z,21.37
2017-09-26T20:12:39.845Z,22.77
2017-09-26T20:15:07.370Z,27.90
2017-09-26T20:17:34.900Z,27.33
2017-09-26T20:20:02.410Z,27.60
2017-09-26T20:22:29.938Z,32.80
2017-09-26T20:24:57.466Z,29.53
2017-09-26T20:27:25.004Z,27.70
2017-09-26T20:29:52.541Z,27.20
2017-09-26T20:32:20.120Z,30.00
2017-09-26T20:34:47.658Z,30.53
2017-09-26T20:37:15.268Z,27.93
2017-09-26T20:39:42.812Z,25.77
2017-09-26T20:42:10.338Z,26.27
2017-09-26T20:44:37.861Z,27.10
2017-09-26T20:47:05.390Z,28.03
2017-09-26T20:49:32.928Z,26.80
2017-09-26T20:52:00.469Z,25.80
2017-09-26T20:54:28.003Z,24.13
2017-09-26T20:56:55.532Z,22.50
2017-09-26T20:59:23.060Z,27.17
2017-09-26T21:01:50.573Z,28.20
2017-09-26T21:04:18.120Z,29.70
2017-09-26T21:06:45.664Z,21.83
2017-09-26T21:09:13.279Z,20.53
2017-09-26T21:11:40.790Z,21.77
2017-09-26T21:14:08.305Z,22.23
2017-09-26T21:16:36.760Z,19.83
2017-09-26T21:19:04.274Z,19.77
2017-09-26T21:21:31.794Z,19.63
2017-09-26T21:23:59.306Z,20.17
2017-09-26T21:26:26.908Z,19.07
2017-09-26T21:28:54.460Z,18.13
2017-09-26T21:31:22.006Z,20.60
2017-09-26T21:33:49.543Z,17.57
2017-09-26T21:36:17.079Z,23.63
2017-09-26T21:38:44.704Z,22.40
2017-09-26T21:41:12.240Z,20.57
2017-09-26T21:43:39.821Z,20.10
2017-09-26T21:46:07.347Z,18.30
2017-09-26T21:48:34.896Z,17.40
2017-09-26T21:51:02.430Z,17.87
2017-09-26T21:53:29.974Z,18.67
2017-09-26T21:55:57.591Z,16.47
2017-09-26T21:58:25.148Z,17.63
2017-09-26T22:00:52.834Z,17.50
2017-09-26T22:03:20.358Z,19.00
2017-09-26T22:05:47.871Z,19.90
2017-09-26T22:08:15.388Z,23.90
2017-09-26T22:10:42.910Z,23.20
2017-09-26T22:13:10.446Z,21.60
2017-09-26T22:15:37.966Z,19.13
2017-09-26T22:18:05.541Z,19.77
2017-09-26T22:20:33.075Z,21.70
2017-09-26T22:23:00.583Z,22.37
2017-09-26T22:25:28.090Z,21.47
2017-09-26T22:27:55.617Z,22.00
2017-09-26T22:30:23.174Z,21.20
2017-09-26T22:32:50.689Z,20.17
2017-09-26T22:35:18.348Z,23.10
2017-09-26T22:37:45.886Z,23.13
2017-09-26T22:40:13.391Z,21.70
2017-09-26T22:42:40.904Z,20.33
2017-09-26T22:45:08.428Z,20.37
2017-09-26T22:47:35.959Z,16.77
2017-09-26T22:50:03.496Z,15.73
2017-09-26T22:52:31.012Z,17.87
2017-09-26T22:54:58.535Z,16.20
2017-09-26T22:57:26.058Z,17.37
2017-09-26T22:59:53.580Z,20.07
2017-09-26T23:02:21.103Z,23.30
2017-09-26T23:04:48.611Z,21.50
2017-09-26T23:07:16.164Z,19.50
2017-09-26T23:09:43.699Z,20.10
2017-09-26T23:12:11.220Z,20.00
2017-09-26T23:14:38.742Z,20.07
2017-09-26T23:17:06.248Z,19.70
2017-09-26T23:19:33.753Z,19.70
2017-09-26T23:22:01.295Z,20.63
2017-09-26T23:24:28.806Z,22.70
2017-09-26T23:26:56.336Z,27.07
2017-09-26T23:29:23.854Z,25.60
2017-09-26T23:31:51.376Z,21.17
2017-09-26T23:34:18.961Z,21.40
2017-09-26T23:36:46.475Z,21.23
2017-09-26T23:39:13.993Z,19.93
2017-09-26T23:41:41.505Z,21.47
2017-09-26T23:44:09.023Z,23.70
2017-09-26T23:46:36.552Z,20.67
2017-09-26T23:49:04.070Z,22.03
2017-09-26T23:51:31.586Z,26.60
2017-09-26T23:53:59.126Z,24.40
2017-09-26T23:56:26.643Z,26.20
2017-09-26T23:58:54.171Z,22.33
